Time;durP1;ratioP1;P1;durP2;ratioP2;P2;SDS_P1;SDS_P2;PMS_P1;PMS_P2;Temp;Humidity;BMP_temperature;BMP_pressure;BME280_temperature;BME280_humidity;BME280_pressure;Samples;Min_cycle;Max_cycle;Signal;HPM_P1;HPM_P2
2023/07/12 00:00:40;;;;;;;10.10;6.00;;;;;;;;;;107598;1251;25356;-82
2023/07/12 00:03:24;;;;;;;11.10;5.70;;;;;;;;;;107594;1254;22546;-76
2023/07/12 00:05:50;;;;;;;9.70;5.90;;;;;;;;;;107579;1251;22631;-81
2023/07/12 00:08:26;;;;;;;8.90;5.30;;;;;;;;;;107473;1251;24226;-81
2023/07/12 00:10:53;;;;;;;11.60;6.40;;;;;;;;;;107580;1252;22527;-76
2023/07/12 00:13:19;;;;;;;12.60;6.90;;;;;;;;;;107463;1253;25227;-76
2023/07/12 00:15:46;;;;;;;10.60;5.80;;;;;;;;;;107540;1251;22844;-76
2023/07/12 00:18:19;;;;;;;10.60;7.00;;;;;;;;;;107585;1251;22826;-80
2023/07/12 00:20:46;;;;;;;9.00;5.70;;;;;;;;;;107566;1251;22524;-76
2023/07/12 00:23:14;;;;;;;11.50;6.40;;;;;;;;;;107524;1251;24225;-76
2023/07/12 00:25:41;;;;;;;11.10;6.20;;;;;;;;;;107434;1251;24074;-76
2023/07/12 00:28:17;;;;;;;10.30;6.20;;;;;;;;;;107402;1253;22636;-81
2023/07/12 00:30:43;;;;;;;9.60;5.60;;;;;;;;;;107538;1251;26475;-81
2023/07/12 00:33:10;;;;;;;10.10;6.30;;;;;;;;;;107547;1251;25837;-76
2023/07/12 00:35:36;;;;;;;9.30;5.70;;;;;;;;;;107541;1251;22562;-81
2023/07/12 00:38:02;;;;;;;8.60;5.80;;;;;;;;;;107594;1251;24099;-81
2023/07/12 00:40:35;;;;;;;9.10;5.10;;;;;;;;;;107580;1251;24218;-80
2023/07/12 00:43:05;;;;;;;10.80;6.00;;;;;;;;;;107558;1251;22588;-76
2023/07/12 00:45:31;;;;;;;9.70;5.50;;;;;;;;;;107619;1252;22554;-81
2023/07/12 00:47:58;;;;;;;8.40;5.50;;;;;;;;;;107574;1251;22643;-81
2023/07/12 00:50:24;;;;;;;9.00;5.30;;;;;;;;;;107581;1251;22633;-76
2023/07/12 00:52:50;;;;;;;10.70;6.10;;;;;;;;;;107438;1251;24111;-81
2023/07/12 00:55:36;;;;;;;12.40;6.80;;;;;;;;;;107562;1252;22515;-80
2023/07/12 00:58:02;;;;;;;12.50;5.00;;;;;;;;;;107568;1251;22518;-76
2023/07/12 01:00:29;;;;;;;10.30;7.40;;;;;;;;;;107588;1251;23150;-80
2023/07/12 01:02:57;;;;;;;10.20;5.90;;;;;;;;;;107552;1251;22543;-75
2023/07/12 01:05:24;;;;;;;7.90;5.80;;;;;;;;;;107637;1251;24371;-80
2023/07/12 01:07:50;;;;;;;8.30;5.50;;;;;;;;;;107583;1251;22557;-75
2023/07/12 01:10:17;;;;;;;9.20;6.30;;;;;;;;;;107521;1251;24220;-75
2023/07/12 01:12:43;;;;;;;9.90;6.10;;;;;;;;;;107587;1250;24249;-77
2023/07/12 01:15:09;;;;;;;13.20;6.00;;;;;;;;;;107618;1252;22518;-75
2023/07/12 01:17:36;;;;;;;9.70;5.50;;;;;;;;;;107579;1250;22528;-80
2023/07/12 01:20:03;;;;;;;13.10;6.20;;;;;;;;;;107577;1254;22620;-76
2023/07/12 01:22:30;;;;;;;8.50;5.00;;;;;;;;;;107598;1250;22815;-80
2023/07/12 01:24:56;;;;;;;9.00;5.40;;;;;;;;;;107630;1251;23072;-80
2023/07/12 01:27:26;;;;;;;13.80;7.00;;;;;;;;;;107563;1251;22525;-75
2023/07/12 01:29:53;;;;;;;8.60;5.30;;;;;;;;;;107485;1251;22645;-81
2023/07/12 01:32:19;;;;;;;13.30;5.90;;;;;;;;;;107649;1253;22533;-75
2023/07/12 01:34:45;;;;;;;10.20;6.00;;;;;;;;;;109382;1251;22246;-80
2023/07/12 01:37:12;;;;;;;10.90;6.30;;;;;;;;;;110690;1251;23207;-81
2023/07/12 01:39:39;;;;;;;11.70;5.60;;;;;;;;;;110728;1251;23121;-76
2023/07/12 01:42:05;;;;;;;10.50;6.70;;;;;;;;;;107884;1251;24183;-75
2023/07/12 01:44:32;;;;;;;9.90;5.70;;;;;;;;;;107573;1251;25026;-75
2023/07/12 01:46:58;;;;;;;12.60;6.10;;;;;;;;;;107603;1251;22685;-79
2023/07/12 01:49:24;;;;;;;10.50;6.00;;;;;;;;;;107639;1251;22547;-75
2023/07/12 01:51:51;;;;;;;6.70;4.70;;;;;;;;;;107590;1254;22549;-75
2023/07/12 01:54:17;;;;;;;8.20;5.20;;;;;;;;;;107599;1251;22537;-76
2023/07/12 01:56:43;;;;;;;9.80;5.00;;;;;;;;;;107599;1251;23286;-80
2023/07/12 01:59:10;;;;;;;15.90;7.10;;;;;;;;;;108626;1250;22424;-81
2023/07/12 02:01:37;;;;;;;9.40;5.60;;;;;;;;;;110721;1250;22344;-76
2023/07/12 02:04:03;;;;;;;11.10;5.60;;;;;;;;;;110697;1251;22333;-76
2023/07/12 02:06:30;;;;;;;8.40;5.60;;;;;;;;;;110698;1251;22247;-76
2023/07/12 02:08:56;;;;;;;9.50;5.50;;;;;;;;;;110652;1251;22474;-81
2023/07/12 02:11:22;;;;;;;8.40;5.70;;;;;;;;;;110664;1250;22351;-76
2023/07/12 02:13:49;;;;;;;7.50;5.20;;;;;;;;;;110705;1250;22957;-76
2023/07/12 02:16:15;;;;;;;9.40;5.80;;;;;;;;;;110714;1250;22385;-76
2023/07/12 02:18:41;;;;;;;9.90;5.30;;;;;;;;;;110698;1251;22452;-76
2023/07/12 02:21:07;;;;;;;8.90;5.80;;;;;;;;;;110687;1251;22557;-81
2023/07/12 02:23:34;;;;;;;8.20;5.40;;;;;;;;;;110715;1250;22423;-81
2023/07/12 02:26:00;;;;;;;12.60;5.70;;;;;;;;;;109393;1249;25329;-75
2023/07/12 02:28:28;;;;;;;11.60;5.30;;;;;;;;;;107598;1251;24246;-80
2023/07/12 02:30:54;;;;;;;10.20;6.10;;;;;;;;;;107556;1250;24200;-81
2023/07/12 02:33:20;;;;;;;10.00;5.60;;;;;;;;;;108597;1254;22265;-81
2023/07/12 02:35:49;;;;;;;8.90;5.90;;;;;;;;;;110647;1251;22461;-76
2023/07/12 02:38:16;;;;;;;9.40;5.20;;;;;;;;;;110671;1251;22525;-76
2023/07/12 02:40:43;;;;;;;9.40;4.60;;;;;;;;;;110607;1251;22363;-80
2023/07/12 02:43:09;;;;;;;12.30;5.20;;;;;;;;;;110732;1251;22591;-76
2023/07/12 02:45:35;;;;;;;10.40;6.20;;;;;;;;;;110699;1251;22309;-80
2023/07/12 02:48:03;;;;;;;9.80;5.20;;;;;;;;;;110693;1251;22278;-81
2023/07/12 02:50:29;;;;;;;10.70;5.80;;;;;;;;;;108753;1251;25006;-80
2023/07/12 02:52:56;;;;;;;8.10;5.20;;;;;;;;;;107604;1251;22542;-76
2023/07/12 02:55:22;;;;;;;7.30;5.20;;;;;;;;;;107646;1251;24180;-75
2023/07/12 02:57:48;;;;;;;6.30;5.00;;;;;;;;;;107565;1251;25374;-80
2023/07/12 03:00:15;;;;;;;10.20;6.30;;;;;;;;;;107594;1250;25451;-81
2023/07/12 03:02:41;;;;;;;7.00;5.40;;;;;;;;;;107613;1251;24193;-75
2023/07/12 03:05:07;;;;;;;10.40;6.30;;;;;;;;;;107584;1250;23759;-80
2023/07/12 03:07:35;;;;;;;11.70;5.30;;;;;;;;;;107554;1251;25505;-75
2023/07/12 03:10:01;;;;;;;9.00;5.60;;;;;;;;;;109904;1251;22705;-75
2023/07/12 03:12:28;;;;;;;7.10;5.20;;;;;;;;;;107573;1251;22557;-80
2023/07/12 03:14:54;;;;;;;10.70;6.10;;;;;;;;;;107584;1251;22552;-76
2023/07/12 03:17:21;;;;;;;7.90;5.00;;;;;;;;;;107492;1253;26357;-76
2023/07/12 03:19:47;;;;;;;7.60;5.60;;;;;;;;;;107582;1250;23172;-81
2023/07/12 03:22:13;;;;;;;8.80;4.80;;;;;;;;;;107596;1251;25338;-76
2023/07/12 03:24:40;;;;;;;7.30;4.90;;;;;;;;;;107594;1254;25281;-81
2023/07/12 03:27:06;;;;;;;8.70;5.10;;;;;;;;;;107542;1251;25473;-75
2023/07/12 03:29:32;;;;;;;10.30;6.80;;;;;;;;;;107598;1251;23273;-76
2023/07/12 03:31:59;;;;;;;11.40;7.70;;;;;;;;;;107582;1253;22753;-81
2023/07/12 03:34:25;;;;;;;8.10;5.40;;;;;;;;;;107541;1251;22668;-80
2023/07/12 03:36:51;;;;;;;9.50;5.80;;;;;;;;;;107550;1251;22532;-78
2023/07/12 03:39:18;;;;;;;12.50;5.60;;;;;;;;;;107565;1251;22622;-81
2023/07/12 03:41:44;;;;;;;15.00;6.10;;;;;;;;;;107599;1251;22557;-80
2023/07/12 03:44:10;;;;;;;13.10;5.30;;;;;;;;;;107533;1251;22522;-80
2023/07/12 03:46:37;;;;;;;6.40;5.00;;;;;;;;;;107593;1251;22566;-82
2023/07/12 03:49:03;;;;;;;9.00;5.70;;;;;;;;;;107571;1251;23605;-81
2023/07/12 03:51:29;;;;;;;7.10;5.00;;;;;;;;;;107625;1251;22635;-76
2023/07/12 03:53:56;;;;;;;8.00;5.50;;;;;;;;;;107568;1251;22569;-76
2023/07/12 03:56:22;;;;;;;9.70;5.70;;;;;;;;;;107546;1251;25357;-81
2023/07/12 03:58:48;;;;;;;8.30;5.20;;;;;;;;;;107445;1252;22550;-81
2023/07/12 04:01:15;;;;;;;11.60;5.90;;;;;;;;;;107604;1251;22515;-76
2023/07/12 04:03:41;;;;;;;6.90;5.00;;;;;;;;;;107570;1251;22529;-76
2023/07/12 04:06:09;;;;;;;7.90;5.10;;;;;;;;;;107591;1251;24840;-80
2023/07/12 04:08:36;;;;;;;7.90;4.90;;;;;;;;;;107566;1251;22563;-76
2023/07/12 04:11:03;;;;;;;12.50;6.70;;;;;;;;;;107575;1250;24300;-81
2023/07/12 04:13:29;;;;;;;7.70;4.90;;;;;;;;;;107601;1251;22590;-81
2023/07/12 04:15:56;;;;;;;8.80;5.80;;;;;;;;;;107603;1254;22650;-76
2023/07/12 04:18:23;;;;;;;8.30;5.70;;;;;;;;;;107553;1251;23453;-79
2023/07/12 04:20:49;;;;;;;7.10;5.10;;;;;;;;;;109145;1266;22539;-76
2023/07/12 04:23:15;;;;;;;8.50;5.10;;;;;;;;;;107592;1251;22528;-82
2023/07/12 04:25:42;;;;;;;10.30;5.50;;;;;;;;;;107488;1251;22523;-82
2023/07/12 04:28:09;;;;;;;10.00;4.90;;;;;;;;;;107577;1254;22514;-81
2023/07/12 04:30:35;;;;;;;10.60;5.70;;;;;;;;;;107457;1251;25355;-81
2023/07/12 04:33:02;;;;;;;7.60;4.70;;;;;;;;;;107583;1254;22589;-76
2023/07/12 04:35:29;;;;;;;8.20;5.20;;;;;;;;;;107543;1251;24394;-81
2023/07/12 04:37:55;;;;;;;9.30;4.80;;;;;;;;;;107579;1251;22543;-81
2023/07/12 04:40:21;;;;;;;6.90;5.00;;;;;;;;;;107587;1254;24261;-82
2023/07/12 04:42:48;;;;;;;7.80;4.90;;;;;;;;;;107555;1250;23532;-76
2023/07/12 04:45:14;;;;;;;6.80;5.30;;;;;;;;;;107563;1251;25545;-76
2023/07/12 04:47:41;;;;;;;10.90;5.40;;;;;;;;;;107537;1251;22712;-76
2023/07/12 04:50:08;;;;;;;10.60;4.80;;;;;;;;;;107605;1250;22528;-75
2023/07/12 04:52:34;;;;;;;9.80;4.60;;;;;;;;;;107468;1251;22527;-76
2023/07/12 04:55:01;;;;;;;10.20;5.50;;;;;;;;;;107587;1251;24199;-81
2023/07/12 04:57:27;;;;;;;9.20;4.80;;;;;;;;;;107572;1251;22548;-81
2023/07/12 04:59:54;;;;;;;6.90;5.70;;;;;;;;;;107601;1251;22518;-81
2023/07/12 05:02:20;;;;;;;6.00;4.10;;;;;;;;;;107578;1251;22521;-81
2023/07/12 05:04:47;;;;;;;7.50;4.80;;;;;;;;;;107619;1250;22552;-76
2023/07/12 05:07:13;;;;;;;10.80;5.60;;;;;;;;;;107573;1253;24251;-82
2023/07/12 05:09:40;;;;;;;7.00;4.90;;;;;;;;;;107569;1253;24218;-81
2023/07/12 05:12:06;;;;;;;10.50;6.20;;;;;;;;;;107579;1251;22643;-76
2023/07/12 05:14:33;;;;;;;10.90;4.90;;;;;;;;;;107578;1251;23530;-81
2023/07/12 05:16:59;;;;;;;7.60;4.80;;;;;;;;;;107619;1251;22546;-81
2023/07/12 05:19:26;;;;;;;11.20;5.60;;;;;;;;;;107552;1251;22640;-76
2023/07/12 05:21:52;;;;;;;10.30;5.00;;;;;;;;;;107612;1253;23623;-76
2023/07/12 05:24:19;;;;;;;6.50;4.40;;;;;;;;;;107649;1251;22533;-75
2023/07/12 05:26:45;;;;;;;11.20;4.70;;;;;;;;;;107552;1254;22520;-76
2023/07/12 05:29:11;;;;;;;6.50;4.70;;;;;;;;;;107618;1251;24223;-75
2023/07/12 05:31:38;;;;;;;9.40;5.20;;;;;;;;;;107558;1251;24191;-81
2023/07/12 05:34:04;;;;;;;7.30;4.70;;;;;;;;;;107566;1251;22540;-82
2023/07/12 05:36:31;;;;;;;10.50;5.20;;;;;;;;;;107574;1250;22531;-81
2023/07/12 05:38:58;;;;;;;7.70;4.20;;;;;;;;;;107599;1250;23147;-76
2023/07/12 05:41:25;;;;;;;8.60;4.50;;;;;;;;;;107580;1251;22912;-81
2023/07/12 05:43:51;;;;;;;13.70;4.50;;;;;;;;;;107571;1249;23745;-76
2023/07/12 05:46:18;;;;;;;9.00;4.60;;;;;;;;;;107524;1251;24238;-78
2023/07/12 05:48:44;;;;;;;7.10;4.90;;;;;;;;;;107562;1251;24177;-76
2023/07/12 05:51:10;;;;;;;9.90;4.50;;;;;;;;;;107563;1252;25351;-76
2023/07/12 05:53:37;;;;;;;6.00;4.30;;;;;;;;;;107540;1251;22534;-81
2023/07/12 05:56:03;;;;;;;6.40;4.60;;;;;;;;;;107545;1251;22620;-76
2023/07/12 05:58:30;;;;;;;10.00;5.20;;;;;;;;;;107545;1252;24236;-81
2023/07/12 06:00:58;;;;;;;12.30;4.60;;;;;;;;;;107633;1251;25380;-76
2023/07/12 06:03:25;;;;;;;6.00;4.30;;;;;;;;;;107683;1251;22779;-81
2023/07/12 06:05:52;;;;;;;6.30;4.20;;;;;;;;;;107572;1251;22584;-81
2023/07/12 06:08:19;;;;;;;7.60;5.20;;;;;;;;;;107961;1252;23058;-81
2023/07/12 06:10:45;;;;;;;9.30;4.20;;;;;;;;;;107555;1255;22531;-81
2023/07/12 06:13:11;;;;;;;7.90;4.70;;;;;;;;;;107668;1251;24342;-81
2023/07/12 06:15:38;;;;;;;6.50;5.00;;;;;;;;;;107565;1251;22695;-82
2023/07/12 06:18:04;;;;;;;6.30;4.00;;;;;;;;;;107752;1251;22524;-80
2023/07/12 06:20:31;;;;;;;7.90;5.00;;;;;;;;;;108050;1251;22517;-76
2023/07/12 06:23:00;;;;;;;6.20;4.20;;;;;;;;;;109937;1251;22880;-76
2023/07/12 06:25:26;;;;;;;9.50;5.10;;;;;;;;;;109825;1251;22607;-76
2023/07/12 06:27:53;;;;;;;6.30;4.20;;;;;;;;;;107865;1251;23037;-82
2023/07/12 06:30:19;;;;;;;9.00;4.80;;;;;;;;;;107809;1250;24293;-75
2023/07/12 06:32:45;;;;;;;9.90;4.60;;;;;;;;;;108603;1253;22540;-76
2023/07/12 06:35:12;;;;;;;16.60;5.80;;;;;;;;;;107773;1252;22559;-82
2023/07/12 06:37:38;;;;;;;8.10;4.80;;;;;;;;;;107712;1253;22614;-82
2023/07/12 06:40:07;;;;;;;12.10;4.90;;;;;;;;;;107803;1255;23284;-76
2023/07/12 06:42:34;;;;;;;9.90;5.40;;;;;;;;;;110546;1252;22417;-76
2023/07/12 06:45:00;;;;;;;8.90;4.70;;;;;;;;;;107933;1253;24797;-82
2023/07/12 06:47:26;;;;;;;15.90;7.70;;;;;;;;;;107668;1253;22523;-76
2023/07/12 06:49:53;;;;;;;7.80;5.70;;;;;;;;;;107742;1250;24691;-76
2023/07/12 06:52:20;;;;;;;6.80;5.10;;;;;;;;;;107693;1252;26485;-76
2023/07/12 06:54:46;;;;;;;7.20;4.00;;;;;;;;;;107613;1251;22546;-76
2023/07/12 06:57:12;;;;;;;7.50;4.20;;;;;;;;;;107682;1251;22554;-76
2023/07/12 06:59:39;;;;;;;10.00;4.60;;;;;;;;;;107715;1253;22534;-76
2023/07/12 07:02:08;;;;;;;8.40;4.30;;;;;;;;;;107694;1250;23513;-82
2023/07/12 07:04:35;;;;;;;11.30;5.30;;;;;;;;;;107606;1252;23284;-76
2023/07/12 07:07:01;;;;;;;5.00;4.20;;;;;;;;;;107530;1252;171500;-82
2023/07/12 07:09:28;;;;;;;8.20;4.70;;;;;;;;;;107679;1251;22601;-82
2023/07/12 07:11:54;;;;;;;8.30;5.10;;;;;;;;;;108235;1251;23855;-76
2023/07/12 07:14:20;;;;;;;10.60;4.70;;;;;;;;;;107570;1251;25198;-76
2023/07/12 07:16:47;;;;;;;6.70;4.70;;;;;;;;;;107637;1255;22522;-76
2023/07/12 07:19:13;;;;;;;7.20;4.80;;;;;;;;;;107738;1255;22517;-83
2023/07/12 07:21:41;;;;;;;6.30;4.20;;;;;;;;;;108421;1251;22433;-82
2023/07/12 07:24:07;;;;;;;8.20;4.60;;;;;;;;;;110638;1252;22364;-82
2023/07/12 07:26:35;;;;;;;8.00;4.40;;;;;;;;;;110664;1251;23061;-76
2023/07/12 07:29:01;;;;;;;6.70;4.90;;;;;;;;;;109486;1252;22692;-82
2023/07/12 07:31:28;;;;;;;9.80;5.50;;;;;;;;;;107855;1250;22657;-82
2023/07/12 07:33:55;;;;;;;9.40;5.50;;;;;;;;;;108199;1251;22313;-76
2023/07/12 07:36:22;;;;;;;8.10;5.40;;;;;;;;;;109238;1251;24319;-76
2023/07/12 07:38:48;;;;;;;7.20;5.30;;;;;;;;;;108144;1251;22539;-83
2023/07/12 07:41:15;;;;;;;5.80;4.30;;;;;;;;;;107989;1250;22541;-77
2023/07/12 07:43:44;;;;;;;6.30;4.70;;;;;;;;;;107734;1251;24197;-82
2023/07/12 07:46:13;;;;;;;5.30;4.30;;;;;;;;;;107714;1253;24265;-81
2023/07/12 07:48:40;;;;;;;14.00;4.80;;;;;;;;;;107545;1257;22531;-82
2023/07/12 07:51:07;;;;;;;6.70;4.70;;;;;;;;;;107726;1252;22530;-76
2023/07/12 07:53:33;;;;;;;10.40;5.90;;;;;;;;;;107634;1252;22520;-76
2023/07/12 07:55:59;;;;;;;14.80;5.40;;;;;;;;;;107834;1251;22684;-82
2023/07/12 07:58:26;;;;;;;8.70;5.40;;;;;;;;;;107657;1251;22557;-82
2023/07/12 08:00:52;;;;;;;9.50;5.20;;;;;;;;;;108304;1253;23238;-77
2023/07/12 08:03:19;;;;;;;6.90;5.30;;;;;;;;;;107667;1252;23642;-76
2023/07/12 08:05:46;;;;;;;6.30;4.80;;;;;;;;;;107577;1256;22566;-77
2023/07/12 08:08:12;;;;;;;7.90;5.40;;;;;;;;;;107736;1250;22517;-83
2023/07/12 08:10:38;;;;;;;7.30;5.20;;;;;;;;;;107769;1254;25329;-83
2023/07/12 08:13:05;;;;;;;7.90;5.20;;;;;;;;;;107833;1251;22527;-83
2023/07/12 08:15:31;;;;;;;5.30;4.60;;;;;;;;;;107693;1255;22639;-77
2023/07/12 08:17:58;;;;;;;6.40;4.60;;;;;;;;;;107588;1251;23468;-77
2023/07/12 08:20:25;;;;;;;8.50;4.70;;;;;;;;;;107675;1251;22541;-77
2023/07/12 08:22:51;;;;;;;5.60;4.40;;;;;;;;;;107720;1250;23390;-84
2023/07/12 08:25:18;;;;;;;10.70;5.30;;;;;;;;;;107539;1253;23031;-84
2023/07/12 08:27:44;;;;;;;8.20;5.10;;;;;;;;;;107676;1253;25049;-78
2023/07/12 08:30:11;;;;;;;10.00;5.20;;;;;;;;;;107583;1251;25698;-78
2023/07/12 08:32:37;;;;;;;5.70;4.80;;;;;;;;;;107744;1252;24115;-84
2023/07/12 08:35:04;;;;;;;6.30;4.90;;;;;;;;;;107640;1252;22638;-77
2023/07/12 08:37:30;;;;;;;9.30;5.20;;;;;;;;;;107648;1251;22725;-85
2023/07/12 08:39:56;;;;;;;4.10;3.70;;;;;;;;;;107667;1252;24254;-85
2023/07/12 08:42:23;;;;;;;6.20;4.30;;;;;;;;;;107824;1251;22644;-84
2023/07/12 08:44:50;;;;;;;7.10;4.50;;;;;;;;;;107714;1251;22577;-77
2023/07/12 08:47:18;;;;;;;6.50;4.80;;;;;;;;;;107601;1251;22564;-84
2023/07/12 08:49:45;;;;;;;7.10;4.60;;;;;;;;;;107610;1253;23319;-78
2023/07/12 08:52:17;;;;;;;8.60;4.90;;;;;;;;;;107658;1251;22749;-84
2023/07/12 08:54:43;;;;;;;5.30;4.60;;;;;;;;;;107476;1251;23051;-77
2023/07/12 08:57:16;;;;;;;7.10;4.50;;;;;;;;;;107651;1249;22626;-78
2023/07/12 08:59:43;;;;;;;7.80;5.40;;;;;;;;;;107748;1251;24234;-78
2023/07/12 09:02:27;;;;;;;10.80;7.20;;;;;;;;;;107784;1269;24285;-76
2023/07/12 09:04:56;;;;;;;6.60;5.30;;;;;;;;;;107758;1252;22633;-83
2023/07/12 09:07:26;;;;;;;7.40;5.00;;;;;;;;;;107775;1252;23158;-83
2023/07/12 09:09:54;;;;;;;8.70;5.80;;;;;;;;;;107861;1251;22646;-77
2023/07/12 09:12:21;;;;;;;10.70;5.90;;;;;;;;;;107865;1255;22519;-77
2023/07/12 09:14:48;;;;;;;11.40;6.00;;;;;;;;;;107828;1251;27362;-77
2023/07/12 09:17:21;;;;;;;8.70;5.90;;;;;;;;;;107662;1251;24833;-77
2023/07/12 09:19:47;;;;;;;6.30;4.90;;;;;;;;;;107776;1253;22535;-77
2023/07/12 09:22:14;;;;;;;14.40;7.00;;;;;;;;;;107822;1251;24092;-83
2023/07/12 09:24:42;;;;;;;16.50;8.60;;;;;;;;;;107668;1251;22531;-82
2023/07/12 09:27:15;;;;;;;11.70;5.70;;;;;;;;;;107679;1251;23459;-83
2023/07/12 09:29:41;;;;;;;9.80;7.10;;;;;;;;;;107679;1251;23044;-83
2023/07/12 09:32:15;;;;;;;11.50;6.70;;;;;;;;;;107790;1252;22543;-83
2023/07/12 09:34:41;;;;;;;8.10;5.50;;;;;;;;;;107614;1252;22938;-77
2023/07/12 09:37:15;;;;;;;7.40;4.70;;;;;;;;;;107643;1253;23946;-82
2023/07/12 09:39:46;;;;;;;8.60;5.70;;;;;;;;;;107654;1251;24284;-79
2023/07/12 09:42:13;;;;;;;11.40;7.60;;;;;;;;;;107704;1255;23369;-82
2023/07/12 09:44:39;;;;;;;14.30;8.90;;;;;;;;;;107850;1251;24229;-82
2023/07/12 09:47:22;;;;;;;13.00;7.30;;;;;;;;;;107658;1251;22539;-77
2023/07/12 09:50:17;;;;;;;11.20;6.80;;;;;;;;;;107693;1251;22507;-83
2023/07/12 09:52:46;;;;;;;11.90;6.70;;;;;;;;;;107593;1252;22660;-83
2023/07/12 09:55:19;;;;;;;9.80;6.20;;;;;;;;;;107757;1251;22603;-84
2023/07/12 09:58:02;;;;;;;10.30;7.30;;;;;;;;;;107807;1251;24833;-83
2023/07/12 10:00:30;;;;;;;9.50;5.80;;;;;;;;;;107869;1252;24242;-83
2023/07/12 10:03:05;;;;;;;11.70;6.10;;;;;;;;;;107760;1251;24312;-83
2023/07/12 10:05:32;;;;;;;9.60;6.00;;;;;;;;;;107653;1252;22562;-82
2023/07/12 10:08:01;;;;;;;8.90;6.10;;;;;;;;;;107660;1253;24376;-76
2023/07/12 10:10:32;;;;;;;8.50;5.90;;;;;;;;;;107715;1253;22523;-82
2023/07/12 10:13:05;;;;;;;7.50;4.90;;;;;;;;;;108199;1252;22269;-76
2023/07/12 10:15:32;;;;;;;6.40;5.00;;;;;;;;;;108356;1254;22604;-82
2023/07/12 10:17:58;;;;;;;8.10;5.60;;;;;;;;;;107714;1255;24341;-82
2023/07/12 10:20:25;;;;;;;9.90;6.00;;;;;;;;;;107825;1253;22563;-82
2023/07/12 10:22:51;;;;;;;7.50;5.20;;;;;;;;;;107762;1250;22520;-76
2023/07/12 10:25:19;;;;;;;17.30;6.10;;;;;;;;;;107693;1253;22588;-76
2023/07/12 10:27:47;;;;;;;8.10;5.20;;;;;;;;;;107657;1254;22643;-76
2023/07/12 10:30:14;;;;;;;;;;;;;;;;;;107784;1253;22600;-83
2023/07/12 10:32:41;;;;;;;18.50;6.20;;;;;;;;;;107774;1253;25409;-82
2023/07/12 10:35:14;;;;;;;13.40;5.60;;;;;;;;;;107621;1255;25397;-83
2023/07/12 10:37:43;;;;;;;7.00;5.70;;;;;;;;;;107684;1251;22534;-83
2023/07/12 10:40:18;;;;;;;7.50;5.00;;;;;;;;;;107690;1253;22539;-83
2023/07/12 10:42:46;;;;;;;7.60;4.90;;;;;;;;;;107725;1252;25360;-77
2023/07/12 10:45:20;;;;;;;6.30;5.00;;;;;;;;;;107754;1252;24248;-83
2023/07/12 10:47:48;;;;;;;8.60;5.00;;;;;;;;;;107617;1251;22545;-83
2023/07/12 10:50:19;;;;;;;4.80;4.20;;;;;;;;;;107793;1255;26189;-77
2023/07/12 10:52:56;;;;;;;7.70;5.20;;;;;;;;;;107660;1254;22544;-77
2023/07/12 10:55:52;;;;;;;7.80;5.30;;;;;;;;;;107621;1255;22532;-77
2023/07/12 10:58:18;;;;;;;8.70;7.30;;;;;;;;;;107578;1252;22528;-77
2023/07/12 11:00:48;;;;;;;9.40;5.70;;;;;;;;;;107656;1252;22920;-77
2023/07/12 11:03:16;;;;;;;12.70;5.30;;;;;;;;;;108006;1252;22608;-77
2023/07/12 11:05:55;;;;;;;6.90;5.40;;;;;;;;;;107550;1251;22507;-83
2023/07/12 11:08:30;;;;;;;7.20;5.60;;;;;;;;;;107584;1255;22991;-76
2023/07/12 11:11:09;;;;;;;7.30;5.30;;;;;;;;;;107577;1253;22538;-83
2023/07/12 11:13:35;;;;;;;7.30;5.60;;;;;;;;;;107630;1253;23076;-82
2023/07/12 11:16:04;;;;;;;9.00;6.00;;;;;;;;;;107512;1253;25388;-76
2023/07/12 11:18:35;;;;;;;9.40;7.20;;;;;;;;;;107575;1255;23924;-77
2023/07/12 11:21:05;;;;;;;11.80;9.90;;;;;;;;;;107647;1250;22697;-81
2023/07/12 11:23:38;;;;;;;23.30;21.50;;;;;;;;;;107492;1257;22567;-82
2023/07/12 11:26:17;;;;;;;8.40;6.60;;;;;;;;;;107505;1255;25217;-76
2023/07/12 11:28:43;;;;;;;10.00;7.00;;;;;;;;;;107592;1254;23213;-76
2023/07/12 11:31:12;;;;;;;8.00;6.30;;;;;;;;;;107660;1251;22700;-82
2023/07/12 11:33:39;;;;;;;8.00;6.00;;;;;;;;;;107432;1257;22555;-76
2023/07/12 11:36:09;;;;;;;9.90;6.00;;;;;;;;;;107647;1256;24349;-76
2023/07/12 11:38:36;;;;;;;11.30;6.50;;;;;;;;;;107898;1255;23932;-76
2023/07/12 11:41:03;;;;;;;9.00;6.90;;;;;;;;;;107784;1254;22540;-76
2023/07/12 11:43:32;;;;;;;8.70;5.70;;;;;;;;;;107665;1251;22618;-82
2023/07/12 11:45:59;;;;;;;9.30;6.90;;;;;;;;;;107584;1255;22533;-82
2023/07/12 11:48:28;;;;;;;10.50;7.10;;;;;;;;;;107536;1254;22521;-83
2023/07/12 11:50:54;;;;;;;8.90;6.00;;;;;;;;;;107440;1257;22529;-81
2023/07/12 11:53:20;;;;;;;8.60;7.40;;;;;;;;;;107478;1253;24221;-75
2023/07/12 11:55:47;;;;;;;8.00;7.20;;;;;;;;;;107549;1253;22546;-76
2023/07/12 11:58:23;;;;;;;11.80;6.90;;;;;;;;;;107552;1255;23005;-82
2023/07/12 12:00:51;;;;;;;9.20;6.10;;;;;;;;;;107583;1255;25373;-75
2023/07/12 12:03:17;;;;;;;8.80;6.40;;;;;;;;;;107519;1254;22525;-81
2023/07/12 12:05:44;;;;;;;11.90;6.20;;;;;;;;;;107531;1251;23929;-81
2023/07/12 12:08:14;;;;;;;11.60;6.10;;;;;;;;;;107499;1251;22537;-82
2023/07/12 12:10:41;;;;;;;7.80;6.70;;;;;;;;;;107536;1255;22538;-76
2023/07/12 12:13:14;;;;;;;8.90;6.30;;;;;;;;;;107405;1251;22646;-83
2023/07/12 12:47:14;;;;;;;7.90;6.00;;;;;;;;;;107557;1253;22654;-78
2023/07/12 12:49:41;;;;;;;8.30;5.50;;;;;;;;;;107741;1253;25392;-79
2023/07/12 12:52:26;;;;;;;10.80;5.70;;;;;;;;;;107823;1251;24197;-78
2023/07/12 12:54:53;;;;;;;9.50;6.00;;;;;;;;;;107668;1251;25281;-80
2023/07/12 12:57:20;;;;;;;9.10;5.10;;;;;;;;;;107645;1253;25409;-81
2023/07/12 12:59:46;;;;;;;8.90;5.80;;;;;;;;;;107682;1251;23761;-82
2023/07/12 13:02:13;;;;;;;8.00;5.40;;;;;;;;;;108616;1254;24325;-85
2023/07/12 13:04:40;;;;;;;9.20;4.90;;;;;;;;;;108513;1251;22543;-85
2023/07/12 13:07:10;;;;;;;10.80;4.80;;;;;;;;;;108618;1251;22545;-84
2023/07/12 13:09:37;;;;;;;7.10;4.10;;;;;;;;;;108516;1256;25272;-86
2023/07/12 13:12:04;;;;;;;5.10;4.20;;;;;;;;;;108788;1255;22545;-86
2023/07/12 13:14:30;;;;;;;7.20;5.20;;;;;;;;;;108531;1251;22690;-84
2023/07/12 13:16:57;;;;;;;7.20;4.30;;;;;;;;;;108420;1254;22560;-82
2023/07/12 13:19:24;;;;;;;6.40;4.30;;;;;;;;;;108310;1255;23016;-82
2023/07/12 13:21:50;;;;;;;8.30;4.00;;;;;;;;;;108558;1253;24082;-81
2023/07/12 13:24:16;;;;;;;6.10;4.50;;;;;;;;;;108307;1252;22545;-81
2023/07/12 13:26:43;;;;;;;4.70;3.90;;;;;;;;;;108386;1251;25378;-82
2023/07/12 13:29:16;;;;;;;4.30;3.10;;;;;;;;;;108356;1255;23362;-81
2023/07/12 13:31:42;;;;;;;5.80;4.60;;;;;;;;;;108462;1251;22700;-81
2023/07/12 13:34:09;;;;;;;9.00;5.30;;;;;;;;;;108384;1251;22615;-81
2023/07/12 13:36:35;;;;;;;8.60;4.00;;;;;;;;;;108286;1251;22621;-82
2023/07/12 13:39:08;;;;;;;7.10;4.30;;;;;;;;;;108469;1251;23263;-82
2023/07/12 13:41:34;;;;;;;7.30;4.20;;;;;;;;;;108567;1251;23348;-82
2023/07/12 13:44:01;;;;;;;8.60;4.60;;;;;;;;;;108393;1251;25492;-82
2023/07/12 13:46:27;;;;;;;10.70;7.40;;;;;;;;;;108429;1251;22597;-80
2023/07/12 13:48:54;;;;;;;8.90;5.30;;;;;;;;;;108402;1251;23363;-81
2023/07/12 13:51:21;;;;;;;6.90;4.60;;;;;;;;;;108436;1255;23992;-82
2023/07/12 13:53:48;;;;;;;7.00;4.40;;;;;;;;;;108329;1255;22542;-81
2023/07/12 13:56:15;;;;;;;11.20;5.40;;;;;;;;;;108350;1251;24385;-82
2023/07/12 13:58:41;;;;;;;4.70;3.70;;;;;;;;;;108372;1251;22645;-81
2023/07/12 14:01:09;;;;;;;7.90;4.60;;;;;;;;;;108457;1253;22670;-82
2023/07/12 14:03:36;;;;;;;5.60;4.10;;;;;;;;;;108350;1251;22621;-82
2023/07/12 14:06:04;;;;;;;6.10;4.30;;;;;;;;;;108604;1251;22502;-81
2023/07/12 14:08:31;;;;;;;6.80;5.30;;;;;;;;;;108725;1251;24411;-81
2023/07/12 14:10:57;;;;;;;8.00;5.20;;;;;;;;;;108815;1251;25499;-81
2023/07/12 14:13:24;;;;;;;6.80;5.30;;;;;;;;;;108580;1252;22658;-82
2023/07/12 14:15:51;;;;;;;7.00;5.00;;;;;;;;;;108783;1251;22591;-80
2023/07/12 14:18:17;;;;;;;6.20;3.70;;;;;;;;;;108921;1251;22614;-80
2023/07/12 14:20:46;;;;;;;8.30;5.50;;;;;;;;;;108655;1254;22522;-80
2023/07/12 14:23:13;;;;;;;5.80;3.30;;;;;;;;;;108584;1254;22991;-82
2023/07/12 14:25:39;;;;;;;7.60;4.40;;;;;;;;;;108624;1255;25299;-80
2023/07/12 14:28:07;;;;;;;5.40;4.20;;;;;;;;;;108401;1254;22527;-80
2023/07/12 14:30:34;;;;;;;6.10;4.20;;;;;;;;;;108539;1251;23413;-82
2023/07/12 14:33:00;;;;;;;4.10;3.50;;;;;;;;;;108774;1251;22619;-82
2023/07/12 14:35:26;;;;;;;5.40;3.40;;;;;;;;;;108684;1251;23224;-82
2023/07/12 14:37:53;;;;;;;10.80;4.20;;;;;;;;;;108610;1251;22533;-82
2023/07/12 14:40:20;;;;;;;7.20;3.90;;;;;;;;;;108636;1251;25208;-82
2023/07/12 14:42:46;;;;;;;5.60;3.80;;;;;;;;;;108631;1254;22661;-81
2023/07/12 14:45:17;;;;;;;4.50;3.40;;;;;;;;;;108752;1251;22739;-81
2023/07/12 14:47:43;;;;;;;4.60;4.20;;;;;;;;;;108366;1251;22660;-82
2023/07/12 14:50:10;;;;;;;7.00;3.90;;;;;;;;;;108317;1251;23330;-81
2023/07/12 14:52:37;;;;;;;4.90;3.60;;;;;;;;;;108370;1256;24836;-82
2023/07/12 14:55:05;;;;;;;5.10;3.90;;;;;;;;;;108317;1251;25478;-81
2023/07/12 14:57:32;;;;;;;5.40;3.70;;;;;;;;;;108411;1251;22623;-82
2023/07/12 14:59:58;;;;;;;4.70;3.70;;;;;;;;;;108334;1255;24014;-82